createdAt,value
2017-07-03T00:00:04.100Z,800.36
2017-07-03T00:00:08.446Z,800.31
2017-07-03T00:00:12.889Z,800.34
2017-07-03T00:00:17.231Z,800.37
2017-07-03T00:00:21.690Z,800.3
2017-07-03T00:00:26.007Z,800.36
2017-07-03T00:00:30.458Z,800.34
2017-07-03T00:00:34.896Z,800.35
2017-07-03T00:00:39.350Z,800.35
2017-07-03T00:00:43.798Z,800.36
2017-07-03T00:00:48.264Z,800.36
2017-07-03T00:00:52.599Z,800.32
2017-07-03T00:00:57.057Z,800.34
2017-07-03T00:01:01.518Z,800.38
2017-07-03T00:01:05.960Z,800.35
2017-07-03T00:01:10.286Z,800.37
2017-07-03T00:01:14.500Z,800.38
2017-07-03T00:01:18.951Z,800.35
2017-07-03T00:01:23.403Z,800.32
2017-07-03T00:01:27.857Z,800.36
2017-07-03T00:01:32.339Z,800.34
2017-07-03T00:01:36.786Z,800.31
2017-07-03T00:01:41.290Z,800.32
2017-07-03T00:01:45.764Z,800.34
2017-07-03T00:01:50.217Z,800.33
2017-07-03T00:01:54.308Z,800.34
2017-07-03T00:01:58.653Z,800.34
2017-07-03T00:02:03.126Z,800.33
2017-07-03T00:02:07.571Z,800.36
2017-07-03T00:02:12.036Z,800.35
2017-07-03T00:02:16.499Z,800.36
2017-07-03T00:02:20.840Z,800.34
2017-07-03T00:02:25.283Z,800.33
2017-07-03T00:02:29.616Z,800.31
2017-07-03T00:02:34.056Z,800.32
2017-07-03T00:02:38.517Z,800.32
2017-07-03T00:02:42.979Z,800.3
2017-07-03T00:02:47.433Z,800.3
2017-07-03T00:02:51.883Z,800.3
2017-07-03T00:02:56.233Z,800.25
2017-07-03T00:03:00.581Z,800.24
2017-07-03T00:03:05.027Z,800.3
2017-07-03T00:03:09.494Z,800.31
2017-07-03T00:03:13.936Z,800.32
2017-07-03T00:03:18.392Z,800.27
2017-07-03T00:03:22.847Z,800.28
2017-07-03T00:03:27.282Z,800.23
2017-07-03T00:03:31.613Z,800.27
2017-07-03T00:03:36.072Z,800.29
2017-07-03T00:03:40.567Z,800.24
2017-07-03T00:03:44.887Z,800.23
2017-07-03T00:03:49.331Z,800.27
2017-07-03T00:03:53.792Z,800.21
2017-07-03T00:03:58.297Z,800.26
2017-07-03T00:04:02.647Z,800.29
2017-07-03T00:04:06.973Z,800.25
2017-07-03T00:04:11.431Z,800.24
2017-07-03T00:04:15.891Z,800.21
2017-07-03T00:04:20.346Z,800.24
2017-07-03T00:04:24.800Z,800.26
2017-07-03T00:04:29.121Z,800.23
2017-07-03T00:04:33.581Z,800.24
2017-07-03T00:04:37.923Z,800.22
2017-07-03T00:04:42.366Z,800.22
2017-07-03T00:04:46.813Z,800.26
2017-07-03T00:04:51.150Z,800.25
2017-07-03T00:04:55.654Z,800.18
2017-07-03T00:05:00.106Z,800.2
2017-07-03T00:05:04.443Z,800.21
2017-07-03T00:05:08.878Z,800.18
2017-07-03T00:05:13.342Z,800.22
2017-07-03T00:05:17.609Z,800.24
2017-07-03T00:05:22.059Z,800.21
2017-07-03T00:05:26.386Z,800.18
2017-07-03T00:05:30.858Z,800.19
2017-07-03T00:05:35.206Z,800.2
2017-07-03T00:05:39.670Z,800.2
2017-07-03T00:05:44.024Z,800.17
2017-07-03T00:05:48.469Z,800.21
2017-07-03T00:05:52.800Z,800.16
2017-07-03T00:05:57.311Z,800.2
2017-07-03T00:06:01.763Z,800.2
2017-07-03T00:06:05.982Z,800.19
2017-07-03T00:06:10.423Z,800.19
2017-07-03T00:06:14.885Z,800.2
2017-07-03T00:06:19.337Z,800.19
2017-07-03T00:06:23.794Z,800.16
2017-07-03T00:06:28.243Z,800.19
2017-07-03T00:06:32.768Z,800.14
2017-07-03T00:06:37.235Z,800.19
2017-07-03T00:06:41.674Z,800.17
2017-07-03T00:06:46.129Z,800.17
2017-07-03T00:06:50.594Z,800.16
2017-07-03T00:06:54.928Z,800.18
2017-07-03T00:06:59.378Z,800.18
2017-07-03T00:07:03.711Z,800.16
2017-07-03T00:07:08.169Z,800.2
2017-07-03T00:07:12.616Z,800.17
2017-07-03T00:07:17.050Z,800.19
2017-07-03T00:07:21.496Z,800.18
2017-07-03T00:07:25.946Z,800.15
2017-07-03T00:07:30.438Z,800.15
2017-07-03T00:07:34.894Z,800.14
2017-07-03T00:07:39.343Z,800.17
2017-07-03T00:07:43.550Z,800.15
2017-07-03T00:07:48.018Z,800.15
2017-07-03T00:07:52.470Z,800.17
2017-07-03T00:07:56.930Z,800.14
2017-07-03T00:08:01.273Z,800.12
2017-07-03T00:08:05.613Z,800.15
2017-07-03T00:08:09.950Z,800.11
2017-07-03T00:08:14.405Z,800.15
2017-07-03T00:08:18.721Z,800.16
2017-07-03T00:08:23.166Z,800.15
2017-07-03T00:08:27.495Z,800.14
2017-07-03T00:08:31.717Z,800.16
2017-07-03T00:08:36.242Z,800.13
2017-07-03T00:08:40.686Z,800.13
2017-07-03T00:08:45.138Z,800.16
2017-07-03T00:08:49.599Z,800.18
2017-07-03T00:08:54.057Z,800.18
2017-07-03T00:08:58.507Z,800.15
2017-07-03T00:09:03.250Z,800.16
2017-07-03T00:09:07.693Z,800.17
2017-07-03T00:09:12.153Z,800.18
2017-07-03T00:09:16.616Z,800.17
2017-07-03T00:09:20.966Z,800.19
2017-07-03T00:09:25.290Z,800.2
2017-07-03T00:09:29.747Z,800.17
2017-07-03T00:09:34.223Z,800.2
2017-07-03T00:09:38.686Z,800.17
2017-07-03T00:09:43.147Z,800.18
2017-07-03T00:09:47.595Z,800.19
2017-07-03T00:09:52.058Z,800.18
2017-07-03T00:09:56.506Z,800.19
2017-07-03T00:10:00.963Z,800.2
2017-07-03T00:10:05.408Z,800.21
2017-07-03T00:10:09.624Z,800.2
2017-07-03T00:10:14.072Z,800.21
2017-07-03T00:10:18.414Z,800.19
2017-07-03T00:10:22.755Z,800.19
2017-07-03T00:10:27.205Z,800.2
2017-07-03T00:10:31.674Z,800.2
2017-07-03T00:10:36.004Z,800.21
2017-07-03T00:10:40.457Z,800.23
2017-07-03T00:10:44.925Z,800.23
2017-07-03T00:10:49.380Z,800.26
2017-07-03T00:10:53.826Z,800.17
2017-07-03T00:10:58.167Z,800.19
2017-07-03T00:11:02.603Z,800.23
2017-07-03T00:11:07.056Z,800.23
2017-07-03T00:11:11.383Z,800.26
2017-07-03T00:11:15.843Z,800.17
2017-07-03T00:11:20.292Z,800.23
2017-07-03T00:11:24.744Z,800.22
2017-07-03T00:11:29.190Z,800.24
2017-07-03T00:11:33.638Z,800.24
2017-07-03T00:11:38.090Z,800.23
2017-07-03T00:11:42.532Z,800.27
2017-07-03T00:11:46.863Z,800.25
2017-07-03T00:11:51.311Z,800.25
2017-07-03T00:11:55.757Z,800.19
2017-07-03T00:12:00.204Z,800.21
2017-07-03T00:12:04.544Z,800.21
2017-07-03T00:12:09.011Z,800.26
2017-07-03T00:12:13.461Z,800.24
2017-07-03T00:12:17.925Z,800.27
2017-07-03T00:12:22.365Z,800.29
2017-07-03T00:12:26.817Z,800.25
2017-07-03T00:12:31.164Z,800.25
2017-07-03T00:12:35.378Z,800.25
2017-07-03T00:12:39.708Z,800.27
2017-07-03T00:12:44.163Z,800.26
2017-07-03T00:12:48.500Z,800.18
2017-07-03T00:12:52.955Z,800.22
2017-07-03T00:12:57.393Z,800.22
2017-07-03T00:13:02.081Z,800.2
2017-07-03T00:13:06.410Z,800.21
2017-07-03T00:13:10.756Z,800.19
2017-07-03T00:13:15.089Z,800.2
2017-07-03T00:13:19.539Z,800.26
2017-07-03T00:13:23.761Z,800.24
2017-07-03T00:13:28.252Z,800.24
2017-07-03T00:13:32.732Z,800.2
2017-07-03T00:13:37.187Z,800.2
2017-07-03T00:13:41.513Z,800.26
2017-07-03T00:13:45.971Z,800.23
2017-07-03T00:13:50.428Z,800.2
2017-07-03T00:13:54.874Z,800.22
2017-07-03T00:13:59.323Z,800.26
2017-07-03T00:14:03.669Z,800.23
2017-07-03T00:14:08.120Z,800.25
2017-07-03T00:14:12.456Z,800.25
2017-07-03T00:14:16.904Z,800.25
2017-07-03T00:14:21.235Z,800.26
2017-07-03T00:14:25.695Z,800.25
2017-07-03T00:14:30.177Z,800.21
2017-07-03T00:14:34.630Z,800.24
2017-07-03T00:14:39.093Z,800.25
2017-07-03T00:14:43.539Z,800.26
2017-07-03T00:14:47.992Z,800.23
2017-07-03T00:14:52.473Z,800.22
2017-07-03T00:14:56.945Z,800.23
2017-07-03T00:15:01.281Z,800.22
2017-07-03T00:15:05.613Z,800.26
2017-07-03T00:15:10.079Z,800.24
2017-07-03T00:15:14.383Z,800.24
2017-07-03T00:15:18.821Z,800.26
2017-07-03T00:15:23.280Z,800.25
2017-07-03T00:15:27.734Z,800.27
2017-07-03T00:15:32.197Z,800.27
2017-07-03T00:15:36.632Z,800.18
2017-07-03T00:15:41.072Z,800.25
2017-07-03T00:15:45.540Z,800.24
2017-07-03T00:15:50.005Z,800.26
2017-07-03T00:15:54.448Z,800.23
2017-07-03T00:15:58.898Z,800.23
2017-07-03T00:16:03.357Z,800.24
2017-07-03T00:16:07.808Z,800.23
2017-07-03T00:16:12.250Z,800.25
2017-07-03T00:16:16.707Z,800.25
2017-07-03T00:16:21.146Z,800.23
2017-07-03T00:16:25.485Z,800.25
2017-07-03T00:16:29.944Z,800.24
2017-07-03T00:16:34.270Z,800.21
2017-07-03T00:16:38.462Z,800.22
2017-07-03T00:16:42.898Z,800.21
2017-07-03T00:16:47.357Z,800.27
2017-07-03T00:16:51.813Z,800.25
2017-07-03T00:16:56.277Z,800.25
2017-07-03T00:17:00.730Z,800.23
2017-07-03T00:17:05.183Z,800.27
2017-07-03T00:17:09.642Z,800.24
2017-07-03T00:17:14.099Z,800.24
2017-07-03T00:17:18.555Z,800.29
2017-07-03T00:17:22.761Z,800.28
2017-07-03T00:17:27.216Z,800.26
2017-07-03T00:17:31.693Z,800.25
2017-07-03T00:17:36.134Z,800.26
2017-07-03T00:17:40.578Z,800.25
2017-07-03T00:17:45.047Z,800.25
2017-07-03T00:17:49.488Z,800.24
2017-07-03T00:17:53.954Z,800.23
2017-07-03T00:17:58.398Z,800.26
2017-07-03T00:18:02.947Z,800.23
2017-07-03T00:18:07.397Z,800.24
2017-07-03T00:18:11.486Z,800.27
2017-07-03T00:18:15.574Z,800.27
2017-07-03T00:18:20.028Z,800.28
2017-07-03T00:18:24.482Z,800.25
2017-07-03T00:18:28.923Z,800.3
2017-07-03T00:18:33.432Z,800.29
2017-07-03T00:18:37.878Z,800.27
2017-07-03T00:18:42.211Z,800.29
2017-07-03T00:18:46.661Z,800.29
2017-07-03T00:18:51.109Z,800.28
2017-07-03T00:18:55.549Z,800.26
2017-07-03T00:18:59.894Z,800.27
2017-07-03T00:19:04.488Z,800.31
2017-07-03T00:19:08.838Z,800.29
2017-07-03T00:19:13.289Z,800.3
2017-07-03T00:19:17.502Z,800.23
2017-07-03T00:19:21.957Z,800.29
2017-07-03T00:19:26.420Z,800.28
2017-07-03T00:19:30.911Z,800.27
2017-07-03T00:19:35.229Z,800.28
2017-07-03T00:19:39.680Z,800.29
2017-07-03T00:19:44.012Z,800.29
2017-07-03T00:19:48.245Z,800.29
2017-07-03T00:19:52.686Z,800.31
2017-07-03T00:19:57.153Z,800.3
2017-07-03T00:20:01.790Z,800.32
2017-07-03T00:20:06.127Z,800.27
2017-07-03T00:20:10.472Z,800.31
2017-07-03T00:20:14.927Z,800.3
2017-07-03T00:20:19.384Z,800.29
2017-07-03T00:20:23.847Z,800.29
2017-07-03T00:20:28.291Z,800.29
2017-07-03T00:20:32.812Z,800.28
2017-07-03T00:20:37.023Z,800.27
2017-07-03T00:20:41.483Z,800.28
2017-07-03T00:20:45.920Z,800.29
2017-07-03T00:20:50.364Z,800.23
2017-07-03T00:20:54.816Z,800.29
2017-07-03T00:20:59.267Z,800.29
2017-07-03T00:21:03.723Z,800.29
2017-07-03T00:21:08.039Z,800.31
2017-07-03T00:21:12.418Z,800.26
2017-07-03T00:21:16.877Z,800.26
2017-07-03T00:21:21.203Z,800.3
2017-07-03T00:21:25.428Z,800.3
2017-07-03T00:21:29.761Z,800.3
2017-07-03T00:21:34.210Z,800.27
2017-07-03T00:21:38.670Z,800.27
2017-07-03T00:21:43.125Z,800.24
2017-07-03T00:21:47.581Z,800.25
2017-07-03T00:21:52.041Z,800.24
2017-07-03T00:21:56.511Z,800.28
2017-07-03T00:22:00.963Z,800.23
2017-07-03T00:22:05.457Z,800.26
2017-07-03T00:22:09.922Z,800.25
2017-07-03T00:22:14.262Z,800.29
2017-07-03T00:22:18.459Z,800.31
2017-07-03T00:22:22.794Z,800.29
2017-07-03T00:22:27.243Z,800.3
2017-07-03T00:22:31.592Z,800.3
2017-07-03T00:22:35.942Z,800.28
2017-07-03T00:22:40.281Z,800.28
2017-07-03T00:22:44.735Z,800.28
2017-07-03T00:22:49.195Z,800.26
2017-07-03T00:22:53.690Z,800.32
2017-07-03T00:22:58.147Z,800.27
2017-07-03T00:23:02.506Z,800.26
2017-07-03T00:23:06.958Z,800.22
2017-07-03T00:23:11.417Z,800.26
2017-07-03T00:23:15.751Z,800.24
2017-07-03T00:23:20.094Z,800.27
2017-07-03T00:23:24.421Z,800.23
2017-07-03T00:23:28.886Z,800.27
2017-07-03T00:23:33.359Z,800.26
2017-07-03T00:23:37.704Z,800.26
2017-07-03T00:23:42.152Z,800.27
2017-07-03T00:23:46.592Z,800.24
2017-07-03T00:23:50.935Z,800.28
2017-07-03T00:23:55.380Z,800.23
2017-07-03T00:23:59.830Z,800.26
2017-07-03T00:24:04.372Z,800.26
2017-07-03T00:24:08.705Z,800.24
2017-07-03T00:24:13.157Z,800.19
2017-07-03T00:24:17.626Z,800.25
2017-07-03T00:24:21.972Z,800.26
2017-07-03T00:24:26.308Z,800.26
2017-07-03T00:24:30.649Z,800.24
2017-07-03T00:24:35.114Z,800.24
2017-07-03T00:24:39.334Z,800.24
2017-07-03T00:24:43.780Z,800.24
2017-07-03T00:24:48.233Z,800.23
2017-07-03T00:24:52.691Z,800.21
2017-07-03T00:24:57.140Z,800.22
2017-07-03T00:25:01.596Z,800.25
2017-07-03T00:25:06.150Z,800.25
2017-07-03T00:25:10.619Z,800.24
2017-07-03T00:25:15.079Z,800.19
2017-07-03T00:25:19.393Z,800.21
2017-07-03T00:25:23.722Z,800.19
2017-07-03T00:25:27.932Z,800.18
2017-07-03T00:25:32.417Z,800.21
2017-07-03T00:25:36.868Z,800.2
2017-07-03T00:25:41.321Z,800.2
2017-07-03T00:25:45.760Z,800.18
2017-07-03T00:25:50.234Z,800.16
2017-07-03T00:25:54.737Z,800.15
2017-07-03T00:25:59.202Z,800.15
2017-07-03T00:26:03.662Z,800.12
2017-07-03T00:26:08.123Z,800.14
2017-07-03T00:26:12.591Z,800.11
2017-07-03T00:26:16.920Z,800.12
2017-07-03T00:26:21.360Z,800.12
2017-07-03T00:26:25.686Z,800.1
2017-07-03T00:26:30.140Z,800.09
2017-07-03T00:26:34.517Z,800.1
2017-07-03T00:26:38.963Z,800.11
2017-07-03T00:26:43.309Z,800.07
2017-07-03T00:26:47.752Z,800.08
2017-07-03T00:26:52.203Z,800.08
2017-07-03T00:26:56.657Z,800.04
2017-07-03T00:27:01.113Z,800.09
2017-07-03T00:27:05.337Z,800.07
2017-07-03T00:27:09.805Z,800.04
2017-07-03T00:27:14.251Z,800.05
2017-07-03T00:27:18.709Z,800.04
2017-07-03T00:27:23.021Z,800.01
2017-07-03T00:27:27.361Z,800.01
2017-07-03T00:27:31.825Z,800.03
2017-07-03T00:27:36.288Z,800.01
2017-07-03T00:27:40.608Z,800.01
2017-07-03T00:27:45.051Z,800.01
2017-07-03T00:27:49.512Z,800.01
2017-07-03T00:27:53.872Z,799.99
2017-07-03T00:27:58.329Z,799.98
2017-07-03T00:28:02.789Z,800
2017-07-03T00:28:07.231Z,799.98
2017-07-03T00:28:11.697Z,799.95
2017-07-03T00:28:16.142Z,799.93
2017-07-03T00:28:20.597Z,799.95
2017-07-03T00:28:24.939Z,799.96
2017-07-03T00:28:29.351Z,799.97
2017-07-03T00:28:33.700Z,799.95
2017-07-03T00:28:38.154Z,799.95
2017-07-03T00:28:42.675Z,799.92
2017-07-03T00:28:47.123Z,799.94
2017-07-03T00:28:51.602Z,799.93
2017-07-03T00:28:56.039Z,799.91
2017-07-03T00:29:00.483Z,799.91
2017-07-03T00:29:04.934Z,799.88
2017-07-03T00:29:09.399Z,799.89
2017-07-03T00:29:13.876Z,799.93
2017-07-03T00:29:18.333Z,799.88
2017-07-03T00:29:22.785Z,799.89
2017-07-03T00:29:27.125Z,799.87
2017-07-03T00:29:31.489Z,799.85
2017-07-03T00:29:35.825Z,799.89
2017-07-03T00:29:40.046Z,799.87
2017-07-03T00:29:44.488Z,799.85
2017-07-03T00:29:48.957Z,799.85
2017-07-03T00:29:53.431Z,799.8
2017-07-03T00:29:57.885Z,799.86
2017-07-03T00:30:02.345Z,799.84
2017-07-03T00:30:06.664Z,799.83
2017-07-03T00:30:11.121Z,799.82
2017-07-03T00:30:15.561Z,799.82
2017-07-03T00:30:20.007Z,799.8
2017-07-03T00:30:23.990Z,799.78
2017-07-03T00:30:28.198Z,799.84
2017-07-03T00:30:32.663Z,799.79
2017-07-03T00:30:36.995Z,799.79
2017-07-03T00:30:41.432Z,799.74
2017-07-03T00:30:45.896Z,799.79
2017-07-03T00:30:50.408Z,799.77
2017-07-03T00:30:54.855Z,799.77
2017-07-03T00:30:59.312Z,799.76
2017-07-03T00:31:03.788Z,799.77
2017-07-03T00:31:08.246Z,799.76
2017-07-03T00:31:12.704Z,799.75
2017-07-03T00:31:17.151Z,799.75
2017-07-03T00:31:21.597Z,799.73
2017-07-03T00:31:26.064Z,799.73
2017-07-03T00:31:30.391Z,799.7
2017-07-03T00:31:34.711Z,799.73
2017-07-03T00:31:39.159Z,799.7
2017-07-03T00:31:43.618Z,799.69
2017-07-03T00:31:48.067Z,799.69
2017-07-03T00:31:52.400Z,799.67
2017-07-03T00:31:56.850Z,799.66
2017-07-03T00:32:01.180Z,799.67
2017-07-03T00:32:05.637Z,799.66
2017-07-03T00:32:10.073Z,799.65
2017-07-03T00:32:14.406Z,799.65
2017-07-03T00:32:18.859Z,799.64
2017-07-03T00:32:23.301Z,799.66
2017-07-03T00:32:27.805Z,799.64
2017-07-03T00:32:32.260Z,799.61
2017-07-03T00:32:36.689Z,799.6
2017-07-03T00:32:41.018Z,799.62
2017-07-03T00:32:45.467Z,799.55
2017-07-03T00:32:49.813Z,799.56
2017-07-03T00:32:54.275Z,799.58
2017-07-03T00:32:58.712Z,799.58
2017-07-03T00:33:03.348Z,799.59
2017-07-03T00:33:07.846Z,799.56
2017-07-03T00:33:12.190Z,799.61
2017-07-03T00:33:16.659Z,799.58
2017-07-03T00:33:21.115Z,799.59
2017-07-03T00:33:25.560Z,799.58
2017-07-03T00:33:29.785Z,799.57
2017-07-03T00:33:34.111Z,799.56
2017-07-03T00:33:38.555Z,799.54
2017-07-03T00:33:42.883Z,799.55
2017-07-03T00:33:47.336Z,799.56
2017-07-03T00:33:51.801Z,799.52
2017-07-03T00:33:56.268Z,799.54
2017-07-03T00:34:00.710Z,799.55
2017-07-03T00:34:05.255Z,799.51
2017-07-03T00:34:09.706Z,799.49
2017-07-03T00:34:14.173Z,799.45
2017-07-03T00:34:18.624Z,799.47
2017-07-03T00:34:23.059Z,799.5
2017-07-03T00:34:27.410Z,799.5
2017-07-03T00:34:31.782Z,799.49
2017-07-03T00:34:36.242Z,799.51
2017-07-03T00:34:40.683Z,799.48
2017-07-03T00:34:45.017Z,799.48
2017-07-03T00:34:49.496Z,799.48
2017-07-03T00:34:53.956Z,799.47
2017-07-03T00:34:58.428Z,799.45
2017-07-03T00:35:02.865Z,799.49
2017-07-03T00:35:07.311Z,799.48
2017-07-03T00:35:11.761Z,799.45
2017-07-03T00:35:16.206Z,799.5
2017-07-03T00:35:20.654Z,799.47
2017-07-03T00:35:24.971Z,799.44
2017-07-03T00:35:29.430Z,799.43
2017-07-03T00:35:33.776Z,799.45
2017-07-03T00:35:38.225Z,799.44
2017-07-03T00:35:42.673Z,799.43
2017-07-03T00:35:47.126Z,799.36
2017-07-03T00:35:51.575Z,799.4
2017-07-03T00:35:56.028Z,799.42
2017-07-03T00:36:00.472Z,799.43
2017-07-03T00:36:04.954Z,799.42
2017-07-03T00:36:09.428Z,799.44
2017-07-03T00:36:13.873Z,799.42
2017-07-03T00:36:18.325Z,799.41
2017-07-03T00:36:22.781Z,799.41
2017-07-03T00:36:27.244Z,799.42
2017-07-03T00:36:31.704Z,799.36
2017-07-03T00:36:36.150Z,799.35
2017-07-03T00:36:40.498Z,799.4
2017-07-03T00:36:44.835Z,799.38
2017-07-03T00:36:49.295Z,799.38
2017-07-03T00:36:53.744Z,799.4
2017-07-03T00:36:58.084Z,799.35
2017-07-03T00:37:02.688Z,799.36
2017-07-03T00:37:07.132Z,799.32
2017-07-03T00:37:11.577Z,799.32
2017-07-03T00:37:16.037Z,799.33
2017-07-03T00:37:20.359Z,799.34
2017-07-03T00:37:24.696Z,799.34
2017-07-03T00:37:29.063Z,799.39
2017-07-03T00:37:33.538Z,799.37
2017-07-03T00:37:37.860Z,799.34
2017-07-03T00:37:42.186Z,799.37
2017-07-03T00:37:46.399Z,799.34
2017-07-03T00:37:50.850Z,799.32
2017-07-03T00:37:55.302Z,799.33
2017-07-03T00:37:59.780Z,799.28
2017-07-03T00:38:04.581Z,799.33
2017-07-03T00:38:09.037Z,799.33
2017-07-03T00:38:13.477Z,799.3
2017-07-03T00:38:17.923Z,799.34
2017-07-03T00:38:22.263Z,799.37
2017-07-03T00:38:26.729Z,799.35
2017-07-03T00:38:31.069Z,799.36
2017-07-03T00:38:35.512Z,799.32
2017-07-03T00:38:39.844Z,799.37
2017-07-03T00:38:44.309Z,799.3
2017-07-03T00:38:48.660Z,799.33
2017-07-03T00:38:53.118Z,799.32
2017-07-03T00:38:57.578Z,799.32
2017-07-03T00:39:02.170Z,799.31
2017-07-03T00:39:06.616Z,799.33
2017-07-03T00:39:11.087Z,799.33
2017-07-03T00:39:15.538Z,799.33
2017-07-03T00:39:19.999Z,799.34
2017-07-03T00:39:24.460Z,799.36
2017-07-03T00:39:28.924Z,799.32
2017-07-03T00:39:33.266Z,799.36
2017-07-03T00:39:37.596Z,799.34
2017-07-03T00:39:41.935Z,799.34
2017-07-03T00:39:46.380Z,799.33
2017-07-03T00:39:50.731Z,799.29
2017-07-03T00:39:55.179Z,799.32
2017-07-03T00:39:59.618Z,799.28
2017-07-03T00:40:04.069Z,799.28
2017-07-03T00:40:08.522Z,799.29
2017-07-03T00:40:12.983Z,799.34
2017-07-03T00:40:17.441Z,799.25
2017-07-03T00:40:21.895Z,799.32
2017-07-03T00:40:26.233Z,799.3
2017-07-03T00:40:30.703Z,799.33
2017-07-03T00:40:35.155Z,799.3
2017-07-03T00:40:39.471Z,799.33
2017-07-03T00:40:43.811Z,799.31
2017-07-03T00:40:48.276Z,799.27
2017-07-03T00:40:52.723Z,799.28
2017-07-03T00:40:57.162Z,799.34
2017-07-03T00:41:01.620Z,799.31
2017-07-03T00:41:06.083Z,799.34
2017-07-03T00:41:10.572Z,799.33
2017-07-03T00:41:14.903Z,799.33
2017-07-03T00:41:19.353Z,799.31
2017-07-03T00:41:23.803Z,799.3
2017-07-03T00:41:28.298Z,799.36
2017-07-03T00:41:32.753Z,799.36
2017-07-03T00:41:37.082Z,799.34
2017-07-03T00:41:41.531Z,799.31
2017-07-03T00:41:45.999Z,799.32
2017-07-03T00:41:50.453Z,799.31
2017-07-03T00:41:54.897Z,799.33
2017-07-03T00:41:59.349Z,799.35
2017-07-03T00:42:03.864Z,799.35
2017-07-03T00:42:08.075Z,799.36
2017-07-03T00:42:12.526Z,799.38
2017-07-03T00:42:16.981Z,799.36
2017-07-03T00:42:21.426Z,799.34
2017-07-03T00:42:25.886Z,799.37
2017-07-03T00:42:30.222Z,799.36
2017-07-03T00:42:34.542Z,799.36
2017-07-03T00:42:38.868Z,799.3
2017-07-03T00:42:43.308Z,799.37
2017-07-03T00:42:47.765Z,799.34
2017-07-03T00:42:52.225Z,799.36
2017-07-03T00:42:56.688Z,799.35
2017-07-03T00:43:01.024Z,799.33
2017-07-03T00:43:05.548Z,799.38
2017-07-03T00:43:09.888Z,799.38
2017-07-03T00:43:14.344Z,799.37
2017-07-03T00:43:18.794Z,799.37
2017-07-03T00:43:23.235Z,799.37
2017-07-03T00:43:27.694Z,799.34
2017-07-03T00:43:32.162Z,799.38
2017-07-03T00:43:36.622Z,799.36
2017-07-03T00:43:41.091Z,799.36
2017-07-03T00:43:45.565Z,799.36
2017-07-03T00:43:49.784Z,799.35
2017-07-03T00:43:54.243Z,799.36
2017-07-03T00:43:58.685Z,799.36
2017-07-03T00:44:03.202Z,799.33
2017-07-03T00:44:07.659Z,799.38
2017-07-03T00:44:12.116Z,799.35
2017-07-03T00:44:16.570Z,799.37
2017-07-03T00:44:21.035Z,799.37
2017-07-03T00:44:25.500Z,799.33
2017-07-03T00:44:29.711Z,799.34
2017-07-03T00:44:34.166Z,799.37
2017-07-03T00:44:38.387Z,799.34
2017-07-03T00:44:42.728Z,799.33
2017-07-03T00:44:47.177Z,799.34
2017-07-03T00:44:51.531Z,799.35
2017-07-03T00:44:55.981Z,799.36
2017-07-03T00:45:00.440Z,799.36
2017-07-03T00:45:05.197Z,799.35
2017-07-03T00:45:09.642Z,799.32
2017-07-03T00:45:14.084Z,799.3
2017-07-03T00:45:18.535Z,799.33
2017-07-03T00:45:22.749Z,799.32
2017-07-03T00:45:27.068Z,799.31
2017-07-03T00:45:31.532Z,799.29
2017-07-03T00:45:35.989Z,799.29
2017-07-03T00:45:40.435Z,799.32
2017-07-03T00:45:44.760Z,799.26
2017-07-03T00:45:49.208Z,799.33
2017-07-03T00:45:53.653Z,799.31
2017-07-03T00:45:57.878Z,799.27
2017-07-03T00:46:02.526Z,799.3
2017-07-03T00:46:06.849Z,799.31
2017-07-03T00:46:11.307Z,799.29
2017-07-03T00:46:15.750Z,799.27
2017-07-03T00:46:20.200Z,799.3
2017-07-03T00:46:24.664Z,799.25
2017-07-03T00:46:29.114Z,799.26
2017-07-03T00:46:33.440Z,799.28
2017-07-03T00:46:37.766Z,799.26
2017-07-03T00:46:42.101Z,799.24
2017-07-03T00:46:46.551Z,799.21
2017-07-03T00:46:51.000Z,799.17
2017-07-03T00:46:55.447Z,799.18
2017-07-03T00:46:59.883Z,799.19
2017-07-03T00:47:04.461Z,799.22
2017-07-03T00:47:08.691Z,799.19
2017-07-03T00:47:13.162Z,799.19
2017-07-03T00:47:17.667Z,799.18
2017-07-03T00:47:22.116Z,799.15
2017-07-03T00:47:26.453Z,799.12
2017-07-03T00:47:30.908Z,799.17
2017-07-03T00:47:35.357Z,799.16
2017-07-03T00:47:39.827Z,799.12
2017-07-03T00:47:44.272Z,799.14
2017-07-03T00:47:48.707Z,799.11
2017-07-03T00:47:53.024Z,799.12
2017-07-03T00:47:57.488Z,799.12
2017-07-03T00:48:01.935Z,799.08
2017-07-03T00:48:06.383Z,799.12
2017-07-03T00:48:10.844Z,799.12
2017-07-03T00:48:15.301Z,799.05
2017-07-03T00:48:19.798Z,799.09
2017-07-03T00:48:24.235Z,799.09
2017-07-03T00:48:28.682Z,799.05
2017-07-03T00:48:33.026Z,799.01
2017-07-03T00:48:37.387Z,799.08
2017-07-03T00:48:41.723Z,799.03
2017-07-03T00:48:46.059Z,798.99
2017-07-03T00:48:50.507Z,799.02
2017-07-03T00:48:54.955Z,799.04
2017-07-03T00:48:59.422Z,799.03
2017-07-03T00:49:03.880Z,799.01
2017-07-03T00:49:08.327Z,799
2017-07-03T00:49:12.789Z,798.98
2017-07-03T00:49:17.126Z,799.01
2017-07-03T00:49:21.577Z,799.01
2017-07-03T00:49:26.024Z,799
2017-07-03T00:49:30.484Z,798.97
2017-07-03T00:49:34.818Z,798.92
2017-07-03T00:49:39.266Z,798.91
2017-07-03T00:49:43.723Z,798.92
2017-07-03T00:49:48.187Z,798.94
2017-07-03T00:49:52.510Z,798.93
2017-07-03T00:49:56.864Z,798.88
2017-07-03T00:50:01.315Z,798.93
2017-07-03T00:50:05.643Z,798.93
2017-07-03T00:50:10.107Z,798.91
2017-07-03T00:50:14.562Z,798.91
2017-07-03T00:50:18.670Z,798.91
2017-07-03T00:50:23.119Z,798.87
2017-07-03T00:50:27.438Z,798.91
2017-07-03T00:50:31.887Z,798.84
2017-07-03T00:50:36.364Z,798.85
2017-07-03T00:50:40.703Z,798.86
2017-07-03T00:50:45.160Z,798.85
2017-07-03T00:50:49.478Z,798.85
2017-07-03T00:50:53.914Z,798.83
2017-07-03T00:50:58.373Z,798.82
2017-07-03T00:51:02.804Z,798.82
2017-07-03T00:51:07.260Z,798.76
2017-07-03T00:51:11.706Z,798.82
2017-07-03T00:51:16.042Z,798.81
2017-07-03T00:51:20.498Z,798.8
2017-07-03T00:51:24.924Z,798.78
2017-07-03T00:51:29.380Z,798.8
2017-07-03T00:51:33.826Z,798.81
2017-07-03T00:51:38.283Z,798.79
2017-07-03T00:51:42.669Z,798.75
2017-07-03T00:51:47.111Z,798.74
2017-07-03T00:51:51.447Z,798.73
2017-07-03T00:51:55.676Z,798.7
2017-07-03T00:52:00.135Z,798.72
2017-07-03T00:52:04.597Z,798.71
2017-07-03T00:52:09.049Z,798.7
2017-07-03T00:52:13.500Z,798.72
2017-07-03T00:52:17.861Z,798.68
2017-07-03T00:52:22.309Z,798.64
2017-07-03T00:52:26.743Z,798.67
2017-07-03T00:52:31.186Z,798.65
2017-07-03T00:52:35.643Z,798.63
2017-07-03T00:52:40.098Z,798.63
2017-07-03T00:52:44.316Z,798.65
2017-07-03T00:52:48.775Z,798.63
2017-07-03T00:52:53.235Z,798.62
2017-07-03T00:52:57.681Z,798.6
2017-07-03T00:53:02.136Z,798.6
2017-07-03T00:53:06.586Z,798.59
2017-07-03T00:53:11.037Z,798.59
2017-07-03T00:53:15.482Z,798.59
2017-07-03T00:53:19.688Z,798.58
2017-07-03T00:53:24.016Z,798.58
2017-07-03T00:53:28.483Z,798.55
2017-07-03T00:53:32.831Z,798.54
2017-07-03T00:53:37.298Z,798.55
2017-07-03T00:53:41.646Z,798.56
2017-07-03T00:53:46.410Z,798.52
2017-07-03T00:53:50.875Z,798.55
2017-07-03T00:53:55.256Z,798.53
2017-07-03T00:53:59.474Z,798.51
2017-07-03T00:54:03.936Z,798.5
2017-07-03T00:54:08.375Z,798.5
2017-07-03T00:54:12.831Z,798.52
2017-07-03T00:54:17.285Z,798.5
2017-07-03T00:54:21.395Z,798.5
2017-07-03T00:54:25.854Z,798.46
2017-07-03T00:54:30.318Z,798.48
2017-07-03T00:54:34.847Z,798.46
2017-07-03T00:54:39.193Z,798.42
2017-07-03T00:54:43.534Z,798.4
2017-07-03T00:54:48.003Z,798.42
2017-07-03T00:54:52.343Z,798.39
2017-07-03T00:54:56.694Z,798.39
2017-07-03T00:55:01.151Z,798.42
2017-07-03T00:55:05.798Z,798.44
2017-07-03T00:55:09.894Z,798.45
2017-07-03T00:55:14.355Z,798.42
2017-07-03T00:55:18.804Z,798.38